Terminal Aerodrome Forecast
Issued by NWS Cleveland, OH

Home | Current Version | Previous Version | Graphics & Text | Print | Product List | Glossary On
Versions: 1 2 3 4 5 6 7 8 9 10 11 12 13 14 15 16 17 18 19 20 21 22 23 24 25 26
000
FTUS41 KCLE 200540
TAFERI
TAF
KERI 200540Z 2006/2106 07005KT 3SM BR OVC250
     FM200800 12008KT P6SM OVC150
     FM201400 13010KT 4SM -RA BR OVC015
     FM201600 13010KT 4SM -RA BR OVC007
     FM201900 20007KT 4SM BR OVC005
     FM210000 20007KT P6SM OVC009=

USA.gov is the U.S. government's official web portal to all federal, state and local government web resources and services.